Date,TemperatureHighF,TemperatureAvgF,TemperatureLowF,DewpointHighF,DewpointAvgF,DewpointLowF,HumidityHigh,HumidityAvg,HumidityLow,PressureMaxIn,PressureMinIn,WindSpeedMaxMPH,WindSpeedAvgMPH,GustSpeedMaxMPH,PrecipitationSumIn
2013-2-1,26.9,23.4,17.5,20.2,11.9,4.9,84,61,48,30.25,29.75,24,5,25,0.27
2013-2-2,23.7,18.7,12.9,17.2,9.0,3.8,88,66,52,30.27,29.98,13,2,13,0.27
2013-2-3,33.8,24.6,16.6,24.6,19.3,11.9,91,80,61,29.99,29.75,21,1,21,0.27
2013-2-4,29.8,23.5,18.9,20.8,12.6,7.2,86,63,49,30.11,29.60,17,2,17,0.02
2013-2-5,32.6,28.5,24.4,28.0,24.7,20.8,92,86,77,29.92,29.81,5,0,5,0.02
2013-2-6,37.8,29.1,18.1,27.6,21.4,13.5,94,74,45,30.32,29.88,14,1,14,0.02
2013-2-7,37.0,26.9,16.3,21.1,16.8,12.6,87,67,49,30.49,30.21,15,2,16,0.02
2013-2-8,39.7,34.3,28.7,34.0,30.2,21.1,96,85,66,30.21,29.68,15,2,15,0.03
2013-2-9,31.6,23.8,11.4,24.2,15.5,3.8,83,71,55,30.39,29.86,19,2,19,0.01
2013-2-10,53.1,24.3,3.6,25.5,13.3,-0.5,88,66,40,30.98,27.15,11,1,11,0.14
2013-2-11,43.0,37.5,33.2,39.4,32.0,18.4,97,81,50,30.18,29.64,16,1,17,0.12
2013-2-12,39.3,36.2,24.9,28.6,25.6,21.3,86,66,57,29.98,29.75,21,4,21,0.00
2013-2-13,45.9,31.4,19.4,33.0,26.3,17.2,95,82,59,29.94,29.63,6,0,6,0.02
2013-2-14,58.1,35.1,24.9,33.4,29.9,-29.2,96,82,60,34.98,20.91,10,1,10,0.07
2013-2-15,49.9,40.1,33.4,34.0,30.6,28.2,93,70,47,29.98,29.89,16,2,16,0.08
2013-2-16,40.4,31.3,25.8,31.8,21.3,0.0,94,68,48,33.11,29.31,12,2,12,0.00
2013-2-17,28.6,22.8,17.0,17.0,8.6,1.2,75,55,39,30.12,29.79,26,4,28,0.00
2013-2-18,61.8,24.6,13.3,23.7,10.5,-37.3,67,56,36,34.94,22.46,12,1,12,0.00
2013-2-19,38.4,31.3,21.3,35.2,26.3,15.8,95,82,61,30.08,29.44,23,1,23,0.26
2013-2-20,30.8,25.5,22.0,23.2,13.9,10.6,73,61,53,30.05,29.77,25,5,25,0.00
2013-2-21,36.7,26.7,21.2,19.5,15.3,12.0,74,62,48,30.33,30.01,19,3,19,0.00
2013-2-22,36.3,28.5,20.6,26.9,20.5,13.7,80,72,60,30.37,30.17,12,1,12,0.00
2013-2-23,41.7,36.3,33.5,37.8,33.1,26.8,96,88,76,30.18,29.82,7,0,7,0.01
2013-2-24,39.2,34.8,29.5,35.3,28.3,20.1,98,78,57,30.04,29.78,18,2,18,0.00
2013-2-25,48.2,34.2,25.2,32.2,24.7,19.9,87,69,49,30.27,30.03,12,1,12,3.42
2013-2-26,44.8,32.7,21.6,34.1,27.7,19.4,95,83,58,30.22,29.77,21,3,21,0.24
2013-2-27,37.3,37.0,36.6,36.3,36.0,35.6,96,96,96,29.62,29.59,1,0,1,0.39
2013-2-28,44.3,37.3,31.8,36.3,33.6,30.5,98,87,60,29.66,29.56,13,1,13,0.39